• Join FlightAware (Why Join?)
  • Login
  • US Flag 
12:02PM EDT


 

Airport Tracker/Info


-or-


 

Live Flight TrackerFlight Track Log ✈ DAL1515 ✈ 09-Jul-2013 ✈ KATL - KALB

Flight Track Log - Related Links

Times and Time Zones

All times are in EDT time to prevent confusion due to time zone crossing. See the DAL1515 flight status page for this flight to view local times or setup timezone preferences in your user account.

Time Position Orientation Groundspeed Altitude Reporting Facility
EDT Latitude Longitude Course Direction KTS MPH feet Rate Location/Type
09:25PM 33.6667 -84.5167 North 233 268 3,300  Level Atlanta TRACON
09:26PM 33.7000 -84.5833 301° West 280 322 6,200 2,280 Climbing Atlanta TRACON
09:28PM 33.8889 -84.6094 353° North 318 366 10,900 2,160 Climbing Atlanta Center
09:29PM 33.9850 -84.6200 355° North 333 383 13,500 2,220 Climbing Atlanta Center
09:30PM 34.0164 -84.2667 North  Level FlightAware Approximate
09:30PM 34.0933 -84.6333 354° North 345 397 15,400  Level Atlanta Center
09:31PM 34.2000 -84.6189 North 366 421 17,800 2,160 Climbing Atlanta Center
09:32PM 34.3022 -84.5744 20° North 387 445 19,800 1,860 Climbing Atlanta Center
09:33PM 34.4089 -84.5297 19° North 394 453 21,600 1,620 Climbing Atlanta Center
09:34PM 34.5178 -84.4850 19° North 402 463 23,100 1,500 Climbing Atlanta Center
09:35PM 34.6242 -84.4403 19° North 402 463 24,600 1,200 Climbing Atlanta Center
09:36PM 34.7350 -84.3925 20° North 409 471 25,500 900 Climbing Atlanta Center
09:37PM 34.8519 -84.3450 18° North 428 493 26,500 1,020 Climbing Atlanta Center
09:38PM 34.9628 -84.2947 20° North 428 493 27,600 1,080 Climbing Atlanta Center
09:39PM 35.0797 -84.2469 18° North 428 493 28,700 1,020 Climbing Atlanta Center
09:40PM 35.1925 -84.1964 20° North 428 493 29,700 900 Climbing Atlanta Center
09:41PM 35.3092 -84.1456 20° North 428 493 30,500 900 Climbing Atlanta Center
09:42PM 35.4283 -84.0975 18° North 433 498 31,500 780 Climbing Atlanta Center
09:43PM 35.5431 -84.0489 19° North 433 498 32,100 720 Climbing Atlanta Center
09:44PM 35.6639 -83.9978 19° North 438 504 33,000 660 Climbing Atlanta Center
09:45PM 35.7786 -83.9467 20° North 443 510 33,500 540 Climbing Atlanta Center
09:46PM 35.8933 -83.8978 19° North 443 510 34,100 600 Climbing Atlanta Center
09:47PM 36.0017 -83.8333 26° Northeast 435 501 34,700 420 Climbing Atlanta Center
09:48PM 36.1100 -83.7636 27° Northeast 435 501 35,000 120 Climbing Atlanta Center
09:49PM 36.2164 -83.6964 27° Northeast 425 489 35,000  Level Atlanta Center
09:50PM 36.3167 -83.6303 28° Northeast 433 498 35,000  Level Indianapolis Center
09:51PM 36.4458 -83.5492 27° Northeast 433 498 35,000  Level Indianapolis Center
09:52PM 36.5558 -83.4794 27° Northeast 437 503 35,000  Level Indianapolis Center
09:53PM 36.6606 -83.4058 29° Northeast 435 501 35,000  Level Indianapolis Center
09:54PM 36.7556 -83.3147 38° Northeast 430 495 35,000  Level Indianapolis Center
09:56PM 36.8508 -83.2233 37° Northeast 432 497 35,000  Level Indianapolis Center
09:57PM 36.9372 -83.1217 43° Northeast 424 488 35,000  Level Indianapolis Center
09:58PM 37.0206 -83.0092 47° Northeast 429 494 35,000  Level Indianapolis Center
09:59PM 37.1025 -82.8933 48° Northeast 435 501 35,000  Level Indianapolis Center
10:00PM 37.1836 -82.7794 48° Northeast 433 498 35,000  Level Indianapolis Center
10:01PM 37.2642 -82.6658 48° Northeast 435 501 35,000  Level Indianapolis Center
10:02PM 37.3450 -82.5519 48° Northeast 435 501 35,000  Level Indianapolis Center
10:03PM 37.4258 -82.4394 48° Northeast 432 497 35,000  Level Indianapolis Center
10:04PM 37.5050 -82.3261 49° Northeast 429 494 35,000  Level Indianapolis Center
10:05PM 37.5842 -82.2128 49° Northeast 429 494 35,000  Level Indianapolis Center
10:06PM 37.6772 -82.0825 48° Northeast 427 491 35,000  Level Indianapolis Center
10:07PM 37.7547 -81.9686 49° Northeast 427 491 35,000  Level Indianapolis Center
10:08PM 37.8347 -81.8542 48° Northeast 432 497 35,000  Level Indianapolis Center
10:09PM 37.9014 -81.7531 50° Northeast 434 499 35,000  Level Indianapolis Center
10:10PM 37.9433 -81.5764 73° East 443 510 35,000  Level Indianapolis Center
10:11PM 37.9706 -81.4239 77° East 446 513 35,000  Level Indianapolis Center
10:12PM 37.9975 -81.2725 77° East 443 510 35,000  Level Indianapolis Center
10:13PM 38.0358 -81.1264 72° East 440 506 35,000  Level Indianapolis Center
10:14PM 38.0817 -80.9839 68° East 439 505 35,000  Level Indianapolis Center
10:15PM 38.1161 -80.8356 74° East 441 507 35,000  Level Indianapolis Center
10:16PM 38.1531 -80.6889 72° East 439 505 35,000  Level Indianapolis Center
10:17PM 38.1917 -80.5400 72° East 443 510 35,000  Level Indianapolis Center
10:18PM 38.2342 -80.3631 73° East 439 505 35,000  Level Indianapolis Center
10:19PM 38.2717 -80.2119 72° East 447 514 35,000  Level Indianapolis Center
10:20PM 38.3061 -80.0822 71° East 435 501 35,000  Level Washington Center
10:21PM 38.3450 -79.9336 72° East 435 501 35,000  Level Washington Center
10:22PM 38.3836 -79.7847 72° East 435 501 35,000  Level Washington Center
10:23PM 38.4467 -79.6506 59° Northeast 435 501 35,000  Level Washington Center
10:24PM 38.5403 -79.5283 46° Northeast 429 494 35,000  Level Washington Center
10:25PM 38.6272 -79.4239 43° Northeast 429 494 35,000  Level Washington Center
10:26PM 38.7139 -79.3192 43° Northeast 429 494 35,000  Level Washington Center
10:27PM 38.7881 -79.2139 48° Northeast 429 494 35,000  Level Washington Center
10:28PM 38.8744 -79.1061 44° Northeast 423 487 35,000  Level Washington Center
10:29PM 38.9611 -78.9981 44° Northeast 423 487 35,000  Level Washington Center
10:30PM 39.0475 -78.8897 44° Northeast 423 487 35,000  Level Washington Center
10:31PM 39.1317 -78.7814 45° Northeast 423 487 35,000  Level Washington Center
10:32PM 39.2181 -78.6725 44° Northeast 423 487 35,000  Level Washington Center
10:34PM 39.4231 -78.4119 44° Northeast 420 483 35,000  Level Cleveland Center
10:36PM 39.5808 -78.2064 45° Northeast 447 514 35,000  Level New York Center
10:37PM 39.6628 -78.0989 45° Northeast 441 507 35,000  Level New York Center
10:38PM 39.7444 -77.9914 45° Northeast 430 495 35,000  Level New York Center
10:39PM 39.8281 -77.8836 45° Northeast 425 489 35,000  Level New York Center
10:40PM 39.9097 -77.7753 45° Northeast 425 489 35,000  Level New York Center
10:41PM 39.9911 -77.6697 45° Northeast 419 482 35,000  Level New York Center
10:42PM 40.0725 -77.5611 46° Northeast 414 476 35,000  Level New York Center
10:43PM 40.1536 -77.4522 46° Northeast 414 476 35,000  Level New York Center
10:44PM 40.2281 -77.3533 45° Northeast 414 476 35,000  Level New York Center
10:45PM 40.3067 -77.2517 45° Northeast 414 476 35,000  Level New York Center
10:46PM 40.3875 -77.1447 45° Northeast 409 471 35,000  Level New York Center
10:47PM 40.4706 -77.0353 45° Northeast 414 476 35,000  Level New York Center
10:48PM 40.5533 -76.9281 45° Northeast 414 476 35,000 -480 Level New York Center
10:49PM 40.6469 -76.8461 34° Northeast 409 471 34,100 -1,620 Descending New York Center
10:50PM 40.7475 -76.7592 33° Northeast 414 476 31,800 -2,100 Descending New York Center
10:51PM 40.8475 -76.6719 33° Northeast 424 488 29,900 -1,440 Descending New York Center
10:52PM 40.9522 -76.5819 33° Northeast 434 499 29,000 -480 Descending New York Center
10:53PM 41.0542 -76.4969 32° Northeast 434 499 29,000  Level New York Center
10:54PM 41.1564 -76.4067 34° Northeast 434 499 29,000  Level New York Center
10:55PM 41.2544 -76.3181 34° Northeast 429 494 29,000 -960 Level New York Center
10:56PM 41.3756 -76.2203 31° Northeast 449 517 27,100 -1,800 Descending New York Center
10:57PM 41.4822 -76.1208 35° Northeast 461 531 25,400 -1,080 Descending New York Center
10:59PM 41.6875 -75.9403 33° Northeast 451 519 24,000 -480 Descending Boston Center
11:00PM 41.7861 -75.8511 34° Northeast 445 512 24,000  Level Boston Center
11:01PM 41.8889 -75.7617 33° Northeast 440 506 24,000  Level Boston Center
11:02PM 41.9897 -75.6692 34° Northeast 435 501 24,000  Level Boston Center
11:03PM 42.0881 -75.5792 34° Northeast 430 495 24,000  Level Boston Center
11:04PM 42.1644 -75.4569 50° Northeast 414 476 24,000 -120 Level Boston Center
11:05PM 42.2183 -75.3081 64° Northeast 425 489 23,800 -900 Descending Boston Center
11:06PM 42.2697 -75.1617 65° Northeast 425 489 22,200 -2,100 Descending Boston Center
11:07PM 42.3142 -75.0428 63° Northeast 420 483 19,700 -2,460 Descending Boston Center
11:08PM 42.3656 -74.8989 64° Northeast 420 483 17,300 -2,400 Descending Boston Center
11:09PM 42.4144 -74.7489 66° East 415 478 15,000 -2,220 Descending Boston Center
11:10PM 42.4564 -74.6294 65° Northeast 396 456 12,900 -2,100 Descending Boston Center
11:11PM 42.5047 -74.4961 64° Northeast 377 434 10,900 -1,440 Descending Boston Center
11:12PM 42.5586 -74.4019 52° Northeast 343 395 10,100 -1,080 Descending Boston Center
11:13PM 42.6164 -74.3078 50° Northeast 301 346 8,800 -1,440 Descending Boston Center
11:14PM 42.6636 -74.2303 50° Northeast 294 338 7,300 -1,560 Descending Boston Center
11:15PM 42.7211 -74.1358 50° Northeast 289 333 5,700 -1,500 Descending Boston Center
11:16PM 42.7681 -74.0664 47° Northeast 289 333 4,400 -1,200 Descending Boston Center
11:17PM 42.8150 -73.9911 50° Northeast 271 312 3,400 -720 Descending Boston Center
11:18PM 42.8683 -73.9075 49° Northeast 266 306 3,000 -660 Descending Boston Center
11:19PM 42.8731 -73.8453 84° East 194 223 2,000 -480 Descending Boston Center
11:20PM 42.8553 -73.7797 110° East 160 184 2,000 -540 Level Boston Center
11:21PM 42.7922 -73.8094 199° South 121 139 1,000 -960 Descending Boston Center
11:25PM 42.7491 -73.8020 192° South  Level Estimated
11:32PM 42.7491 -73.8020 192° South  Level Estimated
11:33PM 42.7491 -73.8020 192° South  Level Estimated